sensor_id;sensor_type;location;lat;lon;timestamp;pressure;altitude;pressure_sealevel;temperature;humidity
69058;BME280;56128;37.534;-122.308;2023-06-10T00:01:28;101343.56;;;17.82;96.17
69058;BME280;56128;37.534;-122.308;2023-06-10T00:03:54;101340.84;;;17.82;96.65
69058;BME280;56128;37.534;-122.308;2023-06-10T00:06:20;101332.75;;;17.73;96.41
69058;BME280;56128;37.534;-122.308;2023-06-10T00:08:50;101337.03;;;17.75;96.68
69058;BME280;56128;37.534;-122.308;2023-06-10T00:11:17;101322.13;;;17.61;96.70
69058;BME280;56128;37.534;-122.308;2023-06-10T00:13:43;101330.44;;;17.50;97.38
69058;BME280;56128;37.534;-122.308;2023-06-10T00:16:09;101335.16;;;17.48;97.79
69058;BME280;56128;37.534;-122.308;2023-06-10T00:18:35;101322.38;;;17.40;98.52
69058;BME280;56128;37.534;-122.308;2023-06-10T00:21:04;101330.81;;;17.27;98.61
69058;BME280;56128;37.534;-122.308;2023-06-10T00:23:31;101326.72;;;17.23;99.70
69058;BME280;56128;37.534;-122.308;2023-06-10T00:26:00;101324.00;;;17.23;100.00
69058;BME280;56128;37.534;-122.308;2023-06-10T00:28:26;101326.91;;;17.02;99.84
69058;BME280;56128;37.534;-122.308;2023-06-10T00:30:53;101336.75;;;16.93;100.00
69058;BME280;56128;37.534;-122.308;2023-06-10T00:33:19;101339.00;;;16.78;100.00
69058;BME280;56128;37.534;-122.308;2023-06-10T00:35:45;101347.84;;;16.70;100.00
69058;BME280;56128;37.534;-122.308;2023-06-10T00:38:13;101340.56;;;16.61;100.00
69058;BME280;56128;37.534;-122.308;2023-06-10T00:40:41;101333.03;;;16.55;100.00
69058;BME280;56128;37.534;-122.308;2023-06-10T00:43:07;101338.16;;;16.58;100.00
69058;BME280;56128;37.534;-122.308;2023-06-10T00:45:34;101338.44;;;16.55;100.00
69058;BME280;56128;37.534;-122.308;2023-06-10T00:48:01;101346.69;;;16.44;100.00
69058;BME280;56128;37.534;-122.308;2023-06-10T00:50:28;101338.47;;;16.45;100.00
69058;BME280;56128;37.534;-122.308;2023-06-10T00:52:54;101342.84;;;16.46;100.00
69058;BME280;56128;37.534;-122.308;2023-06-10T00:55:21;101339.28;;;16.36;100.00
69058;BME280;56128;37.534;-122.308;2023-06-10T00:57:49;101337.72;;;16.33;100.00
69058;BME280;56128;37.534;-122.308;2023-06-10T01:00:17;101332.06;;;16.36;100.00
69058;BME280;56128;37.534;-122.308;2023-06-10T01:02:43;101331.88;;;16.28;100.00
69058;BME280;56128;37.534;-122.308;2023-06-10T01:05:10;101330.59;;;16.32;100.00
69058;BME280;56128;37.534;-122.308;2023-06-10T01:07:55;101332.63;;;16.30;100.00
69058;BME280;56128;37.534;-122.308;2023-06-10T01:13:11;101335.72;;;16.16;100.00
69058;BME280;56128;37.534;-122.308;2023-06-10T01:15:38;101344.09;;;16.13;100.00
69058;BME280;56128;37.534;-122.308;2023-06-10T01:18:09;101338.81;;;16.11;100.00
69058;BME280;56128;37.534;-122.308;2023-06-10T01:20:37;101336.25;;;16.10;100.00
69058;BME280;56128;37.534;-122.308;2023-06-10T01:23:07;101343.63;;;15.98;100.00
69058;BME280;56128;37.534;-122.308;2023-06-10T01:25:36;101342.63;;;15.89;100.00
69058;BME280;56128;37.534;-122.308;2023-06-10T01:33:35;101340.25;;;15.74;100.00
69058;BME280;56128;37.534;-122.308;2023-06-10T01:36:03;101340.00;;;15.78;100.00
69058;BME280;56128;37.534;-122.308;2023-06-10T01:38:33;101331.50;;;15.82;100.00
69058;BME280;56128;37.534;-122.308;2023-06-10T01:41:02;101338.00;;;15.80;100.00
69058;BME280;56128;37.534;-122.308;2023-06-10T01:43:33;101338.84;;;15.70;100.00
69058;BME280;56128;37.534;-122.308;2023-06-10T01:45:59;101338.53;;;15.73;100.00
69058;BME280;56128;37.534;-122.308;2023-06-10T01:48:26;101338.28;;;15.77;100.00
69058;BME280;56128;37.534;-122.308;2023-06-10T01:50:52;101339.41;;;15.74;100.00
69058;BME280;56128;37.534;-122.308;2023-06-10T01:53:18;101333.16;;;15.73;100.00
69058;BME280;56128;37.534;-122.308;2023-06-10T01:55:45;101327.75;;;15.73;100.00
69058;BME280;56128;37.534;-122.308;2023-06-10T01:58:31;101332.59;;;15.70;100.00
69058;BME280;56128;37.534;-122.308;2023-06-10T02:00:57;101326.06;;;15.72;100.00
69058;BME280;56128;37.534;-122.308;2023-06-10T02:03:24;101323.50;;;15.71;100.00
69058;BME280;56128;37.534;-122.308;2023-06-10T02:05:50;101318.38;;;15.68;100.00
69058;BME280;56128;37.534;-122.308;2023-06-10T02:08:16;101333.72;;;15.67;100.00
69058;BME280;56128;37.534;-122.308;2023-06-10T02:10:42;101333.69;;;15.57;100.00
69058;BME280;56128;37.534;-122.308;2023-06-10T02:13:08;101343.44;;;15.49;100.00
69058;BME280;56128;37.534;-122.308;2023-06-10T02:15:35;101338.84;;;15.39;100.00
69058;BME280;56128;37.534;-122.308;2023-06-10T02:18:01;101346.56;;;15.23;100.00
69058;BME280;56128;37.534;-122.308;2023-06-10T02:20:28;101346.50;;;15.13;100.00
69058;BME280;56128;37.534;-122.308;2023-06-10T02:22:58;101348.16;;;15.04;100.00
69058;BME280;56128;37.534;-122.308;2023-06-10T02:25:24;101346.63;;;14.90;100.00
69058;BME280;56128;37.534;-122.308;2023-06-10T02:27:50;101350.50;;;14.76;100.00
69058;BME280;56128;37.534;-122.308;2023-06-10T02:30:17;101363.13;;;14.76;100.00
69058;BME280;56128;37.534;-122.308;2023-06-10T02:32:43;101366.22;;;14.60;100.00
69058;BME280;56128;37.534;-122.308;2023-06-10T02:35:16;101366.50;;;14.57;100.00
69058;BME280;56128;37.534;-122.308;2023-06-10T02:37:43;101359.78;;;14.51;100.00
69058;BME280;56128;37.534;-122.308;2023-06-10T02:40:11;101355.38;;;14.50;100.00
69058;BME280;56128;37.534;-122.308;2023-06-10T02:42:37;101361.25;;;14.44;100.00
69058;BME280;56128;37.534;-122.308;2023-06-10T02:45:04;101363.25;;;14.42;100.00
69058;BME280;56128;37.534;-122.308;2023-06-10T02:47:30;101367.28;;;14.36;100.00
69058;BME280;56128;37.534;-122.308;2023-06-10T02:49:56;101360.69;;;14.29;100.00
69058;BME280;56128;37.534;-122.308;2023-06-10T02:52:23;101367.31;;;14.25;100.00
69058;BME280;56128;37.534;-122.308;2023-06-10T02:54:49;101374.66;;;14.23;100.00
69058;BME280;56128;37.534;-122.308;2023-06-10T02:57:15;101368.09;;;14.16;100.00
69058;BME280;56128;37.534;-122.308;2023-06-10T02:59:41;101377.63;;;14.08;100.00
69058;BME280;56128;37.534;-122.308;2023-06-10T03:02:08;101378.28;;;14.01;100.00
69058;BME280;56128;37.534;-122.308;2023-06-10T03:04:34;101372.91;;;13.89;100.00
69058;BME280;56128;37.534;-122.308;2023-06-10T03:07:03;101381.59;;;13.82;100.00
69058;BME280;56128;37.534;-122.308;2023-06-10T03:09:32;101373.03;;;13.65;100.00
69058;BME280;56128;37.534;-122.308;2023-06-10T03:11:59;101378.16;;;13.68;100.00
69058;BME280;56128;37.534;-122.308;2023-06-10T03:14:26;101377.91;;;13.60;100.00
69058;BME280;56128;37.534;-122.308;2023-06-10T03:16:52;101380.38;;;13.52;100.00
69058;BME280;56128;37.534;-122.308;2023-06-10T03:19:19;101382.56;;;13.46;100.00
69058;BME280;56128;37.534;-122.308;2023-06-10T03:21:57;101385.00;;;13.38;100.00
69058;BME280;56128;37.534;-122.308;2023-06-10T03:24:32;101385.69;;;13.29;100.00
69058;BME280;56128;37.534;-122.308;2023-06-10T03:26:58;101385.56;;;13.30;100.00
69058;BME280;56128;37.534;-122.308;2023-06-10T03:29:24;101388.59;;;13.26;100.00
69058;BME280;56128;37.534;-122.308;2023-06-10T03:31:51;101394.44;;;13.20;100.00
69058;BME280;56128;37.534;-122.308;2023-06-10T03:34:17;101392.84;;;13.17;100.00
69058;BME280;56128;37.534;-122.308;2023-06-10T03:36:43;101381.47;;;13.13;100.00
69058;BME280;56128;37.534;-122.308;2023-06-10T03:39:10;101382.84;;;13.08;100.00
69058;BME280;56128;37.534;-122.308;2023-06-10T03:41:36;101391.97;;;13.05;100.00
69058;BME280;56128;37.534;-122.308;2023-06-10T03:44:02;101387.69;;;13.03;100.00
69058;BME280;56128;37.534;-122.308;2023-06-10T03:46:29;101395.97;;;12.99;100.00
69058;BME280;56128;37.534;-122.308;2023-06-10T03:48:55;101391.94;;;12.94;100.00
69058;BME280;56128;37.534;-122.308;2023-06-10T03:51:21;101397.31;;;12.94;100.00
69058;BME280;56128;37.534;-122.308;2023-06-10T03:53:48;101400.22;;;12.91;100.00
69058;BME280;56128;37.534;-122.308;2023-06-10T03:56:14;101401.44;;;12.87;100.00
69058;BME280;56128;37.534;-122.308;2023-06-10T03:58:41;101395.31;;;12.85;100.00
69058;BME280;56128;37.534;-122.308;2023-06-10T04:01:07;101403.63;;;12.81;100.00
69058;BME280;56128;37.534;-122.308;2023-06-10T04:03:33;101401.91;;;12.80;100.00
69058;BME280;56128;37.534;-122.308;2023-06-10T04:05:59;101412.66;;;12.80;100.00
69058;BME280;56128;37.534;-122.308;2023-06-10T04:08:25;101409.56;;;12.74;100.00
69058;BME280;56128;37.534;-122.308;2023-06-10T04:10:52;101411.63;;;12.70;100.00
69058;BME280;56128;37.534;-122.308;2023-06-10T04:13:18;101419.78;;;12.69;100.00
69058;BME280;56128;37.534;-122.308;2023-06-10T04:15:45;101426.16;;;12.68;100.00
69058;BME280;56128;37.534;-122.308;2023-06-10T04:18:11;101414.91;;;12.62;100.00
69058;BME280;56128;37.534;-122.308;2023-06-10T04:20:37;101416.19;;;12.57;100.00
69058;BME280;56128;37.534;-122.308;2023-06-10T04:23:03;101412.88;;;12.53;100.00
69058;BME280;56128;37.534;-122.308;2023-06-10T04:25:30;101420.31;;;12.49;100.00
69058;BME280;56128;37.534;-122.308;2023-06-10T04:27:56;101415.06;;;12.48;100.00
69058;BME280;56128;37.534;-122.308;2023-06-10T04:30:22;101409.28;;;12.41;100.00
69058;BME280;56128;37.534;-122.308;2023-06-10T04:32:49;101407.19;;;12.33;100.00
69058;BME280;56128;37.534;-122.308;2023-06-10T04:35:15;101419.28;;;12.39;100.00
69058;BME280;56128;37.534;-122.308;2023-06-10T04:37:42;101420.34;;;12.37;100.00
69058;BME280;56128;37.534;-122.308;2023-06-10T04:40:08;101416.06;;;12.34;100.00
69058;BME280;56128;37.534;-122.308;2023-06-10T04:42:36;101421.00;;;12.40;100.00
69058;BME280;56128;37.534;-122.308;2023-06-10T04:45:02;101415.63;;;12.40;100.00
69058;BME280;56128;37.534;-122.308;2023-06-10T04:47:29;101422.47;;;12.44;100.00
69058;BME280;56128;37.534;-122.308;2023-06-10T04:50:00;101427.63;;;12.47;100.00
69058;BME280;56128;37.534;-122.308;2023-06-10T04:52:26;101422.25;;;12.47;100.00
69058;BME280;56128;37.534;-122.308;2023-06-10T04:54:53;101429.31;;;12.48;100.00
69058;BME280;56128;37.534;-122.308;2023-06-10T04:57:20;101434.34;;;12.53;100.00
69058;BME280;56128;37.534;-122.308;2023-06-10T04:59:47;101427.91;;;12.56;100.00
69058;BME280;56128;37.534;-122.308;2023-06-10T05:02:13;101429.63;;;12.57;100.00
69058;BME280;56128;37.534;-122.308;2023-06-10T05:04:40;101445.59;;;12.58;100.00
69058;BME280;56128;37.534;-122.308;2023-06-10T05:07:06;101441.00;;;12.60;100.00
69058;BME280;56128;37.534;-122.308;2023-06-10T05:09:32;101446.03;;;12.65;100.00
69058;BME280;56128;37.534;-122.308;2023-06-10T05:11:58;101437.22;;;12.63;100.00
69058;BME280;56128;37.534;-122.308;2023-06-10T05:14:24;101435.28;;;12.65;100.00
69058;BME280;56128;37.534;-122.308;2023-06-10T05:16:51;101435.28;;;12.65;100.00
69058;BME280;56128;37.534;-122.308;2023-06-10T05:19:17;101442.13;;;12.69;100.00
69058;BME280;56128;37.534;-122.308;2023-06-10T05:21:45;101439.31;;;12.71;100.00
69058;BME280;56128;37.534;-122.308;2023-06-10T05:24:11;101442.97;;;12.70;100.00
69058;BME280;56128;37.534;-122.308;2023-06-10T05:26:37;101441.25;;;12.69;100.00
69058;BME280;56128;37.534;-122.308;2023-06-10T05:29:04;101437.97;;;12.65;100.00
69058;BME280;56128;37.534;-122.308;2023-06-10T05:31:31;101437.09;;;12.64;100.00
69058;BME280;56128;37.534;-122.308;2023-06-10T05:33:57;101428.19;;;12.64;100.00
69058;BME280;56128;37.534;-122.308;2023-06-10T05:36:24;101435.38;;;12.63;100.00
69058;BME280;56128;37.534;-122.308;2023-06-10T05:38:51;101432.19;;;12.58;100.00
69058;BME280;56128;37.534;-122.308;2023-06-10T05:41:18;101427.06;;;12.55;100.00
69058;BME280;56128;37.534;-122.308;2023-06-10T05:43:44;101435.75;;;12.59;100.00
69058;BME280;56128;37.534;-122.308;2023-06-10T05:46:10;101426.19;;;12.55;100.00
69058;BME280;56128;37.534;-122.308;2023-06-10T05:48:36;101434.22;;;12.55;100.00
69058;BME280;56128;37.534;-122.308;2023-06-10T05:51:02;101418.56;;;12.48;100.00
69058;BME280;56128;37.534;-122.308;2023-06-10T05:53:29;101418.56;;;12.48;100.00
69058;BME280;56128;37.534;-122.308;2023-06-10T05:55:56;101427.38;;;12.50;100.00
69058;BME280;56128;37.534;-122.308;2023-06-10T05:58:23;101421.19;;;12.50;100.00
69058;BME280;56128;37.534;-122.308;2023-06-10T06:00:50;101401.44;;;12.38;100.00
69058;BME280;56128;37.534;-122.308;2023-06-10T06:03:17;101422.13;;;12.49;100.00
69058;BME280;56128;37.534;-122.308;2023-06-10T06:05:44;101427.25;;;12.52;100.00
69058;BME280;56128;37.534;-122.308;2023-06-10T06:08:11;101414.22;;;12.47;100.00
69058;BME280;56128;37.534;-122.308;2023-06-10T06:10:39;101415.38;;;12.43;100.00
69058;BME280;56128;37.534;-122.308;2023-06-10T06:13:05;101414.75;;;12.40;100.00
69058;BME280;56128;37.534;-122.308;2023-06-10T06:15:31;101418.94;;;12.44;100.00
69058;BME280;56128;37.534;-122.308;2023-06-10T06:17:57;101419.16;;;12.41;100.00
69058;BME280;56128;37.534;-122.308;2023-06-10T06:20:24;101418.31;;;12.40;100.00
69058;BME280;56128;37.534;-122.308;2023-06-10T06:22:50;101408.03;;;12.34;100.00
69058;BME280;56128;37.534;-122.308;2023-06-10T06:25:16;101401.69;;;12.35;100.00
69058;BME280;56128;37.534;-122.308;2023-06-10T06:27:42;101400.94;;;12.33;100.00
69058;BME280;56128;37.534;-122.308;2023-06-10T06:30:09;101401.06;;;12.31;100.00
69058;BME280;56128;37.534;-122.308;2023-06-10T06:32:35;101402.78;;;12.32;100.00
69058;BME280;56128;37.534;-122.308;2023-06-10T06:35:01;101395.81;;;12.30;100.00
69058;BME280;56128;37.534;-122.308;2023-06-10T06:37:28;101399.22;;;12.32;100.00
69058;BME280;56128;37.534;-122.308;2023-06-10T06:39:54;101398.56;;;12.28;100.00
69058;BME280;56128;37.534;-122.308;2023-06-10T06:42:20;101396.97;;;12.26;100.00
69058;BME280;56128;37.534;-122.308;2023-06-10T06:44:47;101395.28;;;12.25;100.00
69058;BME280;56128;37.534;-122.308;2023-06-10T06:47:13;101404.31;;;12.24;100.00
69058;BME280;56128;37.534;-122.308;2023-06-10T06:49:40;101407.72;;;12.26;100.00
69058;BME280;56128;37.534;-122.308;2023-06-10T06:52:06;101410.41;;;12.26;100.00
69058;BME280;56128;37.534;-122.308;2023-06-10T06:54:32;101408.72;;;12.25;100.00
69058;BME280;56128;37.534;-122.308;2023-06-10T06:56:59;101410.31;;;12.27;100.00
69058;BME280;56128;37.534;-122.308;2023-06-10T06:59:25;101406.63;;;12.28;100.00
69058;BME280;56128;37.534;-122.308;2023-06-10T07:01:51;101410.31;;;12.27;100.00
69058;BME280;56128;37.534;-122.308;2023-06-10T07:04:19;101403.94;;;12.28;100.00
69058;BME280;56128;37.534;-122.308;2023-06-10T07:06:47;101403.09;;;12.28;100.00
69058;BME280;56128;37.534;-122.308;2023-06-10T07:09:14;101400.19;;;12.31;100.00
69058;BME280;56128;37.534;-122.308;2023-06-10T07:11:40;101400.19;;;12.31;100.00
69058;BME280;56128;37.534;-122.308;2023-06-10T07:14:07;101401.91;;;12.32;100.00
69058;BME280;56128;37.534;-122.308;2023-06-10T07:16:33;101383.22;;;12.30;100.00
69058;BME280;56128;37.534;-122.308;2023-06-10T07:18:59;101385.78;;;12.32;100.00
69058;BME280;56128;37.534;-122.308;2023-06-10T07:21:26;101377.66;;;12.33;100.00
69058;BME280;56128;37.534;-122.308;2023-06-10T07:23:54;101368.84;;;12.31;100.00
69058;BME280;56128;37.534;-122.308;2023-06-10T07:26:22;101375.06;;;12.32;100.00
69058;BME280;56128;37.534;-122.308;2023-06-10T07:28:48;101378.72;;;12.31;100.00
69058;BME280;56128;37.534;-122.308;2023-06-10T07:31:14;101375.06;;;12.32;100.00
69058;BME280;56128;37.534;-122.308;2023-06-10T07:33:40;101378.72;;;12.31;100.00
69058;BME280;56128;37.534;-122.308;2023-06-10T07:36:07;101378.94;;;12.28;100.00
69058;BME280;56128;37.534;-122.308;2023-06-10T07:38:33;101378.84;;;12.29;100.00
69058;BME280;56128;37.534;-122.308;2023-06-10T07:40:59;101376.50;;;12.25;100.00
69058;BME280;56128;37.534;-122.308;2023-06-10T07:43:26;101382.59;;;12.27;100.00
69058;BME280;56128;37.534;-122.308;2023-06-10T07:45:52;101372.94;;;12.24;100.00
69058;BME280;56128;37.534;-122.308;2023-06-10T07:48:18;101370.91;;;12.28;100.00
69058;BME280;56128;37.534;-122.308;2023-06-10T07:50:44;101362.84;;;12.28;100.00
69058;BME280;56128;37.534;-122.308;2023-06-10T07:53:11;101367.59;;;12.24;100.00
69058;BME280;56128;37.534;-122.308;2023-06-10T07:55:37;101367.81;;;12.21;100.00
69058;BME280;56128;37.534;-122.308;2023-06-10T07:58:03;101359.13;;;12.17;100.00
69058;BME280;56128;37.534;-122.308;2023-06-10T08:00:29;101356.66;;;12.14;100.00
69058;BME280;56128;37.534;-122.308;2023-06-10T08:02:55;101365.69;;;12.13;100.00
69058;BME280;56128;37.534;-122.308;2023-06-10T08:05:21;101366.03;;;12.09;100.00
69058;BME280;56128;37.534;-122.308;2023-06-10T08:07:48;101368.09;;;12.05;100.00
69058;BME280;56128;37.534;-122.308;2023-06-10T08:10:14;101360.47;;;11.99;100.00
69058;BME280;56128;37.534;-122.308;2023-06-10T08:12:40;101356.19;;;11.96;100.00
69058;BME280;56128;37.534;-122.308;2023-06-10T08:15:07;101363.47;;;11.94;100.00
69058;BME280;56128;37.534;-122.308;2023-06-10T08:17:33;101362.81;;;11.91;100.00
69058;BME280;56128;37.534;-122.308;2023-06-10T08:20:00;101370.88;;;11.91;100.00
69058;BME280;56128;37.534;-122.308;2023-06-10T08:22:26;101369.63;;;11.96;100.00
69058;BME280;56128;37.534;-122.308;2023-06-10T08:24:52;101366.13;;;11.94;100.00
69058;BME280;56128;37.534;-122.308;2023-06-10T08:27:18;101358.88;;;11.96;100.00
69058;BME280;56128;37.534;-122.308;2023-06-10T08:29:45;101365.97;;;11.97;100.00
69058;BME280;56128;37.534;-122.308;2023-06-10T08:32:11;101368.66;;;11.97;100.00
69058;BME280;56128;37.534;-122.308;2023-06-10T08:34:57;101373.13;;;11.97;100.00
69058;BME280;56128;37.534;-122.308;2023-06-10T08:37:24;101358.66;;;11.99;100.00
69058;BME280;56128;37.534;-122.308;2023-06-10T08:39:50;101356.72;;;12.01;100.00
69058;BME280;56128;37.534;-122.308;2023-06-10T08:42:23;101347.72;;;12.02;100.00
69058;BME280;56128;37.534;-122.308;2023-06-10T08:44:56;101347.59;;;12.04;100.00
69058;BME280;56128;37.534;-122.308;2023-06-10T08:47:24;101346.75;;;12.04;100.00
69058;BME280;56128;37.534;-122.308;2023-06-10T08:49:51;101343.19;;;12.03;100.00
69058;BME280;56128;37.534;-122.308;2023-06-10T08:52:24;101335.13;;;12.03;100.00
69058;BME280;56128;37.534;-122.308;2023-06-10T08:54:56;101329.66;;;12.05;100.00
69058;BME280;56128;37.534;-122.308;2023-06-10T08:57:23;101329.78;;;12.03;100.00
69058;BME280;56128;37.534;-122.308;2023-06-10T08:59:51;101336.75;;;12.06;100.00
69058;BME280;56128;37.534;-122.308;2023-06-10T09:02:18;101327.09;;;12.03;100.00
69058;BME280;56128;37.534;-122.308;2023-06-10T09:04:49;101327.09;;;12.03;100.00
69058;BME280;56128;37.534;-122.308;2023-06-10T09:07:16;101319.69;;;12.07;100.00
69058;BME280;56128;37.534;-122.308;2023-06-10T09:09:43;101321.41;;;12.08;100.00
69058;BME280;56128;37.534;-122.308;2023-06-10T09:12:11;101320.31;;;12.10;100.00
69058;BME280;56128;37.534;-122.308;2023-06-10T09:14:38;101321.16;;;12.11;100.00
69058;BME280;56128;37.534;-122.308;2023-06-10T09:17:05;101323.84;;;12.11;100.00
69058;BME280;56128;37.534;-122.308;2023-06-10T09:19:32;101329.13;;;12.12;100.00
69058;BME280;56128;37.534;-122.308;2023-06-10T09:21:58;101324.84;;;12.10;100.00
69058;BME280;56128;37.534;-122.308;2023-06-10T09:24:25;101321.28;;;12.09;100.00
69058;BME280;56128;37.534;-122.308;2023-06-10T09:27:06;101318.72;;;12.08;100.00
69058;BME280;56128;37.534;-122.308;2023-06-10T09:29:52;101304.47;;;12.07;100.00
69058;BME280;56128;37.534;-122.308;2023-06-10T09:32:19;101292.75;;;12.08;100.00
69058;BME280;56128;37.534;-122.308;2023-06-10T09:34:46;101282.25;;;12.05;100.00
69058;BME280;56128;37.534;-122.308;2023-06-10T09:37:13;101288.56;;;12.04;100.00
69058;BME280;56128;37.534;-122.308;2023-06-10T09:42:34;101302.22;;;12.01;100.00
69058;BME280;56128;37.534;-122.308;2023-06-10T09:45:05;101302.22;;;12.01;100.00
69058;BME280;56128;37.534;-122.308;2023-06-10T09:47:31;101294.06;;;12.02;100.00
69058;BME280;56128;37.534;-122.308;2023-06-10T09:49:57;101286.13;;;12.01;100.00
69058;BME280;56128;37.534;-122.308;2023-06-10T09:52:28;101291.84;;;11.96;100.00
69058;BME280;56128;37.534;-122.308;2023-06-10T09:55:00;101296.13;;;11.99;100.00
69058;BME280;56128;37.534;-122.308;2023-06-10T09:57:31;101298.91;;;11.97;100.00
69058;BME280;56128;37.534;-122.308;2023-06-10T10:00:06;101290.00;;;11.97;100.00
69058;BME280;56128;37.534;-122.308;2023-06-10T10:02:44;101302.44;;;11.98;100.00
69058;BME280;56128;37.534;-122.308;2023-06-10T10:05:13;101291.91;;;11.95;100.00
69058;BME280;56128;37.534;-122.308;2023-06-10T10:07:40;101272.41;;;11.93;100.00
69058;BME280;56128;37.534;-122.308;2023-06-10T10:10:07;101283.38;;;11.90;100.00
69058;BME280;56128;37.534;-122.308;2023-06-10T10:12:36;101287.53;;;11.94;100.00
69058;BME280;56128;37.534;-122.308;2023-06-10T10:15:05;101305.41;;;11.93;100.00
69058;BME280;56128;37.534;-122.308;2023-06-10T10:17:35;101299.44;;;11.90;100.00
69058;BME280;56128;37.534;-122.308;2023-06-10T10:20:05;101300.72;;;11.97;100.00
69058;BME280;56128;37.534;-122.308;2023-06-10T10:22:38;101295.56;;;11.94;100.00
69058;BME280;56128;37.534;-122.308;2023-06-10T10:25:11;101291.03;;;11.94;100.00
69058;BME280;56128;37.534;-122.308;2023-06-10T10:27:52;101286.78;;;11.92;100.00
69058;BME280;56128;37.534;-122.308;2023-06-10T10:30:21;101285.06;;;11.91;100.00
69058;BME280;56128;37.534;-122.308;2023-06-10T10:32:56;101286.78;;;11.92;100.00
69058;BME280;56128;37.534;-122.308;2023-06-10T10:35:23;101277.75;;;11.93;100.00
69058;BME280;56128;37.534;-122.308;2023-06-10T10:37:54;101283.38;;;11.90;100.00
69058;BME280;56128;37.534;-122.308;2023-06-10T10:40:22;101281.97;;;11.84;100.00
69058;BME280;56128;37.534;-122.308;2023-06-10T10:42:50;101268.34;;;11.87;100.00
69058;BME280;56128;37.534;-122.308;2023-06-10T10:45:17;101271.13;;;11.85;100.00
69058;BME280;56128;37.534;-122.308;2023-06-10T10:47:45;101270.50;;;11.82;100.00
69058;BME280;56128;37.534;-122.308;2023-06-10T10:50:16;101276.72;;;11.82;100.00
69058;BME280;56128;37.534;-122.308;2023-06-10T10:55:24;101273.28;;;11.80;100.00
69058;BME280;56128;37.534;-122.308;2023-06-10T10:57:54;101272.66;;;11.77;100.00
69058;BME280;56128;37.534;-122.308;2023-06-10T11:00:27;101269.00;;;11.78;100.00
69058;BME280;56128;37.534;-122.308;2023-06-10T11:05:39;101262.81;;;11.77;100.00
69058;BME280;56128;37.534;-122.308;2023-06-10T11:08:08;101262.06;;;11.75;100.00
69058;BME280;56128;37.534;-122.308;2023-06-10T11:10:42;101266.34;;;11.78;100.00
69058;BME280;56128;37.534;-122.308;2023-06-10T11:13:20;101262.91;;;11.76;100.00
69058;BME280;56128;37.534;-122.308;2023-06-10T11:15:48;101255.22;;;11.71;100.00
69058;BME280;56128;37.534;-122.308;2023-06-10T11:18:40;101256.28;;;11.68;100.00
69058;BME280;56128;37.534;-122.308;2023-06-10T11:21:07;101260.34;;;11.74;100.00
69058;BME280;56128;37.534;-122.308;2023-06-10T11:23:38;101260.47;;;11.73;100.00
69058;BME280;56128;37.534;-122.308;2023-06-10T11:26:21;101253.25;;;11.73;100.00
69058;BME280;56128;37.534;-122.308;2023-06-10T11:31:29;101242.03;;;11.68;100.00
69058;BME280;56128;37.534;-122.308;2023-06-10T11:34:01;101245.66;;;11.67;100.00
69058;BME280;56128;37.534;-122.308;2023-06-10T11:36:34;101251.78;;;11.69;100.00
69058;BME280;56128;37.534;-122.308;2023-06-10T11:39:05;101241.19;;;11.67;100.00
69058;BME280;56128;37.534;-122.308;2023-06-10T11:41:32;101239.34;;;11.68;100.00
69058;BME280;56128;37.534;-122.308;2023-06-10T11:44:13;101244.06;;;11.64;100.00
69058;BME280;56128;37.534;-122.308;2023-06-10T11:46:40;101229.50;;;11.68;100.00
69058;BME280;56128;37.534;-122.308;2023-06-10T11:49:08;101226.69;;;11.70;100.00
69058;BME280;56128;37.534;-122.308;2023-06-10T11:51:36;101226.91;;;11.67;100.00
69058;BME280;56128;37.534;-122.308;2023-06-10T11:54:03;101227.13;;;11.64;100.00
69058;BME280;56128;37.534;-122.308;2023-06-10T11:56:31;101221.53;;;11.67;100.00
69058;BME280;56128;37.534;-122.308;2023-06-10T11:59:01;101219.72;;;11.67;100.00
69058;BME280;56128;37.534;-122.308;2023-06-10T12:01:33;101223.50;;;11.65;100.00
69058;BME280;56128;37.534;-122.308;2023-06-10T12:04:04;101229.56;;;11.67;100.00
69058;BME280;56128;37.534;-122.308;2023-06-10T12:06:41;101221.53;;;11.67;100.00
69058;BME280;56128;37.534;-122.308;2023-06-10T12:09:25;101221.53;;;11.67;100.00
69058;BME280;56128;37.534;-122.308;2023-06-10T12:12:03;101227.03;;;11.65;100.00
69058;BME280;56128;37.534;-122.308;2023-06-10T12:15:08;101223.38;;;11.66;100.00
69058;BME280;56128;37.534;-122.308;2023-06-10T12:20:04;101214.81;;;11.61;100.00
69058;BME280;56128;37.534;-122.308;2023-06-10T12:22:41;101225.41;;;11.63;100.00
69058;BME280;56128;37.534;-122.308;2023-06-10T12:25:08;101222.53;;;11.66;100.00
69058;BME280;56128;37.534;-122.308;2023-06-10T12:27:36;101231.75;;;11.62;100.00
69058;BME280;56128;37.534;-122.308;2023-06-10T12:30:04;101234.22;;;11.65;100.00
69058;BME280;56128;37.534;-122.308;2023-06-10T12:32:42;101230.66;;;11.64;100.00
69058;BME280;56128;37.534;-122.308;2023-06-10T12:35:11;101229.06;;;11.62;100.00
69058;BME280;56128;37.534;-122.308;2023-06-10T12:37:40;101235.19;;;11.64;100.00